Time;durP1;ratioP1;P1;durP2;ratioP2;P2;SDS_P1;SDS_P2;PMS_P1;PMS_P2;Temp;Humidity;BMP_temperature;BMP_pressure;BME280_temperature;BME280_humidity;BME280_pressure;Samples;Min_cycle;Max_cycle;Signal;HPM_P1;HPM_P2
2022/02/14 00:00:53;0.00;0.00;0.62;0.00;0.00;0.62;2.03;1.47;;;22.10;24.40;;;;;;2242045;62;20366;-62
2022/02/14 00:03:39;0.00;0.00;0.62;0.00;0.00;0.62;2.27;1.43;;;22.10;24.40;;;;;;2241857;62;20382;-61
2022/02/14 00:06:24;0.00;0.00;0.62;0.00;0.00;0.62;3.37;1.20;;;22.10;24.40;;;;;;2241905;62;20591;-62
2022/02/14 00:09:08;0.00;0.00;0.62;0.00;0.00;0.62;2.27;1.20;;;22.10;24.50;;;;;;2241914;62;20455;-61
2022/02/14 00:11:53;0.00;0.00;0.62;0.00;0.00;0.62;2.73;1.60;;;22.10;24.40;;;;;;2241799;62;20370;-62
2022/02/14 00:14:38;0.00;0.00;0.62;0.00;0.00;0.62;2.40;1.50;;;22.10;24.40;;;;;;2241822;62;20364;-62
2022/02/14 00:17:23;0.00;0.00;0.62;0.00;0.00;0.62;2.20;1.70;;;22.10;24.40;;;;;;2241791;62;20371;-62
2022/02/14 00:20:09;0.00;0.00;0.62;0.00;0.00;0.62;2.80;1.80;;;22.10;24.40;;;;;;2241467;62;20431;-63
2022/02/14 00:22:55;0.00;0.00;0.62;0.00;0.00;0.62;3.30;2.03;;;22.10;24.30;;;;;;2242293;62;20398;-62
2022/02/14 00:25:39;0.00;0.00;0.62;0.00;0.00;0.62;2.30;1.63;;;22.10;24.20;;;;;;2242007;62;20446;-62
2022/02/14 00:28:24;0.00;0.00;0.62;0.00;0.00;0.62;2.57;1.67;;;22.10;24.20;;;;;;2241586;62;20738;-62
2022/02/14 00:31:10;0.00;0.00;0.62;0.00;0.00;0.62;2.60;1.87;;;22.10;24.20;;;;;;2241923;62;20398;-62
2022/02/14 00:33:54;0.00;0.00;0.62;0.00;0.00;0.62;2.30;1.90;;;22.10;24.10;;;;;;2241541;62;20367;-61
2022/02/14 00:36:39;0.00;0.00;0.62;0.00;0.00;0.62;2.50;1.73;;;22.10;24.00;;;;;;2241995;62;20366;-62
2022/02/14 00:39:23;0.00;0.00;0.62;0.00;0.00;0.62;3.77;2.57;;;22.10;24.00;;;;;;2241931;62;20442;-63
2022/02/14 00:42:08;0.00;0.00;0.62;0.00;0.00;0.62;3.20;2.60;;;22.00;23.80;;;;;;2241513;62;20414;-62
2022/02/14 00:44:52;0.00;0.00;0.62;0.00;0.00;0.62;2.80;1.90;;;22.00;23.70;;;;;;2242281;62;20370;-61
2022/02/14 00:47:38;0.00;0.00;0.62;0.00;0.00;0.62;2.33;1.97;;;22.00;23.70;;;;;;2241624;62;20394;-60
2022/02/14 00:50:24;0.00;0.00;0.62;0.00;0.00;0.62;3.77;2.13;;;22.00;23.60;;;;;;2241430;62;20423;-61
2022/02/14 00:53:08;0.00;0.00;0.62;0.00;0.00;0.62;4.53;2.60;;;21.90;23.50;;;;;;2241974;62;20359;-61
2022/02/14 00:55:53;0.00;0.00;0.62;0.00;0.00;0.62;2.40;2.10;;;21.90;23.50;;;;;;2241370;62;20425;-63
2022/02/14 00:58:37;0.00;0.00;0.62;0.00;0.00;0.62;2.47;2.00;;;21.90;23.50;;;;;;2241534;62;20434;-62
2022/02/14 01:01:22;0.00;0.00;0.62;0.00;0.00;0.62;2.87;2.03;;;21.80;23.50;;;;;;2241969;62;20369;-62
2022/02/14 01:04:08;0.00;0.00;0.62;0.00;0.00;0.62;3.20;2.20;;;21.80;23.50;;;;;;2241438;62;20495;-62
2022/02/14 01:06:52;0.00;0.00;0.62;0.00;0.00;0.62;3.97;2.27;;;21.80;23.50;;;;;;2242223;62;20370;-62
2022/02/14 01:09:36;0.00;0.00;0.62;0.00;0.00;0.62;5.30;2.07;;;21.80;23.50;;;;;;2241498;62;20766;-62
2022/02/14 01:12:21;0.00;0.00;0.62;0.00;0.00;0.62;3.00;2.10;;;21.70;23.40;;;;;;2241310;62;20411;-63
2022/02/14 01:15:08;0.00;0.00;0.62;0.00;0.00;0.62;4.73;2.40;;;21.70;23.40;;;;;;2241541;62;20724;-62
2022/02/14 01:17:53;0.00;0.00;0.62;0.00;0.00;0.62;2.53;2.07;;;21.70;23.40;;;;;;2241177;62;20389;-63
2022/02/14 01:20:39;0.00;0.00;0.62;0.00;0.00;0.62;3.70;2.20;;;21.70;23.40;;;;;;2241639;62;20386;-61
2022/02/14 01:23:23;0.00;0.00;0.62;0.00;0.00;0.62;3.47;2.13;;;21.70;23.40;;;;;;2241867;62;20446;-62
2022/02/14 01:26:08;0.00;0.00;0.62;0.00;0.00;0.62;2.90;1.93;;;21.70;23.50;;;;;;2241403;62;20370;-66
2022/02/14 01:28:52;0.00;0.00;0.62;0.00;0.00;0.62;5.47;2.23;;;21.70;23.50;;;;;;2241588;62;20407;-62
2022/02/14 01:31:37;0.00;0.00;0.62;0.00;0.00;0.62;2.83;2.33;;;21.60;23.40;;;;;;2241574;62;20443;-62
2022/02/14 01:34:22;0.00;0.00;0.62;0.00;0.00;0.62;3.13;2.27;;;21.60;23.40;;;;;;2241247;62;20359;-62
2022/02/14 01:37:08;0.00;0.00;0.62;0.00;0.00;0.62;2.50;1.90;;;21.60;23.40;;;;;;2241791;62;20382;-62
2022/02/14 01:39:53;0.00;0.00;0.62;0.00;0.00;0.62;3.07;2.30;;;21.60;23.40;;;;;;2241471;62;20599;-62
2022/02/14 01:42:38;0.00;0.00;0.62;0.00;0.00;0.62;4.30;2.40;;;21.70;23.50;;;;;;2241262;62;20386;-62
2022/02/14 01:45:22;0.00;0.00;0.62;0.00;0.00;0.62;2.40;2.00;;;21.60;23.40;;;;;;2241812;62;20398;-62
2022/02/14 01:48:06;0.00;0.00;0.62;0.00;0.00;0.62;2.60;2.30;;;21.60;23.50;;;;;;2241039;62;20382;-62
2022/02/14 01:50:51;0.00;0.00;0.62;0.00;0.00;0.62;3.43;2.50;;;21.60;23.50;;;;;;2241739;62;20481;-62
2022/02/14 01:53:38;0.00;0.00;0.62;0.00;0.00;0.62;3.33;1.97;;;21.60;23.50;;;;;;2241832;62;20718;-62
2022/02/14 01:56:22;0.00;0.00;0.62;0.00;0.00;0.62;3.13;2.30;;;21.60;23.50;;;;;;2241198;62;20371;-62
2022/02/14 01:59:07;0.00;0.00;0.62;0.00;0.00;0.62;2.50;1.97;;;21.60;23.60;;;;;;2241903;62;20383;-60
2022/02/14 02:01:51;0.00;0.00;0.62;0.00;0.00;0.62;7.03;2.40;;;21.60;23.60;;;;;;2241656;62;20738;-61
2022/02/14 02:04:37;0.00;0.00;0.62;0.00;0.00;0.62;2.60;1.87;;;21.60;23.70;;;;;;2241613;62;20390;-63
2022/02/14 02:07:22;0.00;0.00;0.62;0.00;0.00;0.62;3.43;1.97;;;21.50;23.60;;;;;;2241656;62;20471;-61
2022/02/14 02:10:12;0.00;0.00;0.62;0.00;0.00;0.62;3.23;2.20;;;21.60;23.70;;;;;;2240810;62;20405;-62
2022/02/14 02:12:57;0.00;0.00;0.62;0.00;0.00;0.62;2.23;2.03;;;21.50;23.60;;;;;;2241502;62;20382;-61
2022/02/14 02:15:42;0.00;0.00;0.62;0.00;0.00;0.62;3.07;1.90;;;21.50;23.60;;;;;;2241564;62;20390;-61
2022/02/14 02:18:27;0.00;0.00;0.62;0.00;0.00;0.62;2.67;2.00;;;21.50;23.50;;;;;;2241135;62;20382;-60
2022/02/14 02:21:12;0.00;0.00;0.62;0.00;0.00;0.62;3.80;2.37;;;21.50;23.50;;;;;;2241865;62;20464;-60
2022/02/14 02:23:57;0.00;0.00;0.62;0.00;0.00;0.62;3.30;2.47;;;21.50;23.50;;;;;;2241519;62;20617;-61
2022/02/14 02:26:44;0.00;0.00;0.62;0.00;0.00;0.62;2.60;1.73;;;21.50;23.60;;;;;;2241398;62;20382;-60
2022/02/14 02:29:30;0.00;0.00;0.62;0.00;0.00;0.62;5.00;2.80;;;21.50;23.50;;;;;;2241500;62;20389;-61
2022/02/14 02:32:14;0.00;0.00;0.62;0.00;0.00;0.62;4.30;2.30;;;21.50;24.10;;;;;;2240708;62;20585;-61
2022/02/14 02:35:02;0.00;0.00;0.62;0.00;0.00;0.62;3.13;2.37;;;21.50;23.50;;;;;;2241392;62;20398;-61
2022/02/14 02:37:47;0.00;0.00;0.62;0.00;0.00;0.62;2.20;1.90;;;21.50;23.50;;;;;;2241410;62;20634;-61
2022/02/14 02:40:31;0.00;0.00;0.62;0.00;0.00;0.62;2.53;2.20;;;21.50;23.50;;;;;;2240848;62;20410;-61
2022/02/14 02:43:18;0.00;0.00;0.62;0.00;0.00;0.62;2.87;1.93;;;21.50;23.50;;;;;;2241888;62;20386;-61
2022/02/14 02:46:03;0.00;0.00;0.62;0.00;0.00;0.62;3.37;2.03;;;21.40;23.40;;;;;;2241371;62;20533;-61
2022/02/14 02:48:47;0.00;0.00;0.62;0.00;0.00;0.62;2.50;2.20;;;21.40;24.00;;;;;;2240879;62;20409;-61
2022/02/14 02:51:35;0.00;0.00;0.62;0.00;0.00;0.62;5.87;2.17;;;21.40;23.50;;;;;;2241628;62;20726;-61
2022/02/14 02:54:21;0.00;0.00;0.62;0.00;0.00;0.62;2.40;1.83;;;21.40;23.40;;;;;;2241160;62;20366;-61
2022/02/14 02:57:06;0.00;0.00;0.62;0.00;0.00;0.62;2.97;1.93;;;21.40;23.40;;;;;;2241247;62;20471;-61
2022/02/14 02:59:53;0.00;0.00;0.62;0.00;0.00;0.62;3.10;2.40;;;21.40;23.40;;;;;;2241499;62;20503;-61
2022/02/14 03:02:38;0.00;0.00;0.62;0.00;0.00;0.62;4.00;2.27;;;21.30;23.40;;;;;;2241156;62;20382;-61
2022/02/14 03:05:25;0.00;0.00;0.62;0.00;0.00;0.62;2.77;2.30;;;21.40;23.40;;;;;;2241939;62;20394;-61
2022/02/14 03:08:10;0.00;0.00;0.62;0.00;0.00;0.62;2.73;2.30;;;21.30;23.30;;;;;;2241045;62;20458;-61
2022/02/14 03:10:54;0.00;0.00;0.62;0.00;0.00;0.62;2.77;2.17;;;21.30;23.40;;;;;;2241018;62;20722;-61
2022/02/14 03:13:39;0.00;0.00;0.62;0.00;0.00;0.62;2.60;2.30;;;21.30;23.30;;;;;;2241592;62;20440;-62
2022/02/14 03:16:25;0.00;0.00;0.62;0.00;0.00;0.62;2.40;2.13;;;21.30;23.40;;;;;;2240650;62;20370;-61
2022/02/14 03:19:11;0.00;0.00;0.62;0.00;0.00;0.62;2.50;2.27;;;21.30;23.40;;;;;;2241247;62;20391;-61
2022/02/14 03:21:56;0.00;0.00;0.62;0.00;0.00;0.62;3.27;2.00;;;21.20;23.90;;;;;;2241507;62;20431;-61
2022/02/14 03:24:40;0.00;0.00;0.62;0.00;0.00;0.62;3.57;2.60;;;21.20;23.30;;;;;;2241241;62;20362;-59
2022/02/14 03:27:25;0.00;0.00;0.62;0.00;0.00;0.62;3.80;2.37;;;21.20;23.30;;;;;;2241361;62;20445;-62
2022/02/14 03:30:11;0.00;0.00;0.62;0.00;0.00;0.62;3.40;2.70;;;21.20;23.30;;;;;;2241034;62;20491;-62
2022/02/14 03:32:56;0.00;0.00;0.62;0.00;0.00;0.62;3.03;2.23;;;21.20;23.40;;;;;;2241011;62;20395;-62
2022/02/14 03:35:41;0.00;0.00;0.62;0.00;0.00;0.62;2.63;2.20;;;21.20;23.40;;;;;;2241462;62;20386;-62
2022/02/14 03:38:25;0.00;0.00;0.62;0.00;0.00;0.62;3.40;2.13;;;21.10;23.30;;;;;;2240859;62;20398;-60
2022/02/14 03:41:10;0.00;0.00;0.62;0.00;0.00;0.62;2.50;2.30;;;21.20;23.40;;;;;;2241317;62;20426;-61
2022/02/14 03:43:55;0.00;0.00;0.62;0.00;0.00;0.62;2.80;2.40;;;21.10;23.40;;;;;;2241427;62;20398;-60
2022/02/14 03:46:40;0.00;0.00;0.62;0.00;0.00;0.62;2.60;2.23;;;21.10;23.40;;;;;;2240967;62;20381;-62
2022/02/14 03:49:26;0.00;0.00;0.62;0.00;0.00;0.62;3.00;2.10;;;21.10;23.40;;;;;;2241171;62;20386;-60
2022/02/14 03:52:11;0.00;0.00;0.62;0.00;0.00;0.62;2.93;2.40;;;21.10;23.40;;;;;;2241968;62;20386;-62
2022/02/14 03:54:55;0.00;0.00;0.62;0.00;0.00;0.62;2.27;2.03;;;21.10;23.50;;;;;;2241435;62;20366;-60
2022/02/14 03:57:41;0.00;0.00;0.62;0.00;0.00;0.62;3.83;2.03;;;21.10;23.50;;;;;;2242001;62;20394;-60
2022/02/14 04:00:26;0.00;0.00;0.62;0.00;0.00;0.62;2.87;1.93;;;21.10;23.50;;;;;;2241630;62;20434;-60
2022/02/14 04:03:11;0.00;0.00;0.62;0.00;0.00;0.62;4.00;2.27;;;21.10;23.50;;;;;;2241437;62;20685;-62
2022/02/14 04:05:57;0.00;0.00;0.62;0.00;0.00;0.62;2.70;1.97;;;21.10;23.50;;;;;;2242053;62;20370;-62
2022/02/14 04:08:41;0.00;0.00;0.62;0.00;0.00;0.62;4.37;2.70;;;21.10;23.50;;;;;;2241413;62;20459;-62
2022/02/14 04:11:26;0.00;0.00;0.62;0.00;0.00;0.62;2.93;1.80;;;21.10;23.50;;;;;;2241877;62;20446;-60
2022/02/14 04:14:10;0.00;0.00;0.62;0.00;0.00;0.62;3.50;2.40;;;21.10;23.50;;;;;;2242138;62;20383;-60
2022/02/14 04:16:55;0.00;0.00;0.62;0.00;0.00;0.62;2.50;2.13;;;21.10;23.50;;;;;;2241569;62;20387;-62
2022/02/14 04:19:40;0.00;0.00;0.62;0.00;0.00;0.62;3.13;2.10;;;21.10;23.50;;;;;;2242211;62;20711;-61
2022/02/14 04:22:26;0.00;0.00;0.62;0.00;0.00;0.62;3.10;2.40;;;21.10;23.40;;;;;;2241920;62;20370;-61
2022/02/14 04:25:13;0.00;0.00;0.62;0.00;0.00;0.62;3.33;1.87;;;21.10;23.40;;;;;;2241847;62;20374;-60
2022/02/14 04:27:58;0.00;0.00;0.62;0.00;0.00;0.62;3.80;2.20;;;21.10;23.40;;;;;;2242018;62;20366;-62
2022/02/14 04:30:42;0.00;0.00;0.62;0.00;0.00;0.62;2.83;2.20;;;21.10;23.40;;;;;;2241477;62;20358;-60
2022/02/14 04:33:27;0.00;0.00;0.62;0.00;0.00;0.62;2.87;2.33;;;21.10;23.40;;;;;;2241811;62;20354;-61
2022/02/14 04:36:12;0.00;0.00;0.62;0.00;0.00;0.62;3.37;2.63;;;21.00;23.30;;;;;;2241648;62;20370;-61
2022/02/14 04:38:58;0.00;0.00;0.62;0.00;0.00;0.62;3.33;2.73;;;21.00;23.20;;;;;;2241503;62;20390;-61
2022/02/14 04:41:43;0.00;0.00;0.62;0.00;0.00;0.62;3.30;2.90;;;21.00;23.10;;;;;;2242300;62;20370;-62
2022/02/14 04:44:28;0.00;0.00;0.62;0.00;0.00;0.62;4.87;2.70;;;21.00;23.00;;;;;;2241791;62;20438;-61
2022/02/14 04:47:12;0.00;0.00;0.62;0.00;0.00;0.62;2.97;2.60;;;20.90;22.70;;;;;;2241242;62;20426;-62
2022/02/14 04:49:57;0.00;0.00;0.62;0.00;0.00;0.62;4.10;2.70;;;20.90;22.50;;;;;;2241987;62;20603;-61
2022/02/14 04:52:41;0.00;0.00;0.62;0.00;0.00;0.62;4.80;2.83;;;20.80;22.20;;;;;;2241431;62;20701;-61
2022/02/14 04:55:28;0.00;0.00;0.62;0.00;0.00;0.62;3.93;2.83;;;20.80;22.20;;;;;;2241601;62;20357;-61
2022/02/14 04:58:12;0.00;0.00;0.62;0.00;0.00;0.62;3.67;2.70;;;20.70;22.20;;;;;;2241816;62;20405;-60
2022/02/14 05:00:56;0.00;0.00;0.62;0.00;0.00;0.62;3.33;2.40;;;20.60;22.00;;;;;;2241510;62;20410;-62
2022/02/14 05:03:41;0.00;0.00;0.62;0.00;0.00;0.62;5.17;3.10;;;20.60;22.00;;;;;;2241997;62;20757;-62
2022/02/14 05:06:26;0.00;0.00;0.62;0.00;0.00;0.62;4.53;2.97;;;20.50;21.90;;;;;;2241573;62;20398;-62
2022/02/14 05:09:10;0.00;0.00;0.62;0.00;0.00;0.62;6.13;3.30;;;20.40;21.90;;;;;;2243581;61;20662;-62
2022/02/14 05:11:56;0.00;0.00;0.62;0.00;0.00;0.62;3.83;2.57;;;20.40;21.90;;;;;;2240917;62;20411;-61
2022/02/14 05:14:41;0.00;0.00;0.62;0.00;0.00;0.62;6.00;2.87;;;20.30;21.80;;;;;;2241463;62;20475;-61
2022/02/14 05:17:26;0.00;0.00;0.62;0.00;0.00;0.62;4.27;2.90;;;20.30;21.90;;;;;;2241054;62;20358;-62
2022/02/14 05:20:11;0.00;0.00;0.62;0.00;0.00;0.62;3.30;3.00;;;20.20;21.80;;;;;;2241529;61;20383;-62
2022/02/14 05:22:56;0.00;0.00;0.62;0.00;0.00;0.62;3.63;2.40;;;20.20;21.80;;;;;;2255459;58;20459;-62
2022/02/14 05:25:41;0.00;0.00;0.62;0.00;0.00;0.62;3.33;2.63;;;20.10;21.80;;;;;;2245597;61;20384;-60
2022/02/14 05:28:27;0.00;0.00;0.62;0.00;0.00;0.62;5.10;2.93;;;20.10;21.80;;;;;;2241183;62;20463;-62
2022/02/14 05:31:11;0.00;0.00;0.62;0.00;0.00;0.62;3.47;2.87;;;20.00;21.80;;;;;;2240904;62;20442;-62
2022/02/14 05:33:56;0.00;0.00;0.62;0.00;0.00;0.62;3.80;2.40;;;20.00;21.90;;;;;;2243722;61;20780;-61
2022/02/14 05:36:41;0.00;0.00;0.62;0.00;0.00;0.62;4.90;2.67;;;20.00;22.00;;;;;;2246217;61;20389;-61
2022/02/14 05:39:27;0.00;0.00;0.62;0.00;0.00;0.62;3.13;2.50;;;19.90;21.90;;;;;;2247117;61;20449;-61
2022/02/14 05:42:12;0.00;0.00;0.62;0.00;0.00;0.62;5.07;3.13;;;19.90;21.90;;;;;;2247997;61;20724;-60
2022/02/14 05:44:58;0.00;0.00;0.62;0.00;0.00;0.62;2.93;2.47;;;19.90;21.90;;;;;;2249271;61;20360;-60
2022/02/14 05:47:42;0.00;0.00;0.62;0.00;0.00;0.62;3.70;2.83;;;19.80;21.90;;;;;;2291692;53;20388;-59
2022/02/14 05:50:27;0.00;0.00;0.62;0.00;0.00;0.62;3.37;2.60;;;19.80;21.90;;;;;;2249416;61;20396;-60
2022/02/14 05:53:11;0.00;0.00;0.62;0.00;0.00;0.62;3.20;2.23;;;19.70;21.80;;;;;;2249150;61;20368;-61
2022/02/14 05:55:57;0.00;0.00;0.62;0.00;0.00;0.62;5.17;2.43;;;19.70;21.90;;;;;;2249764;61;20634;-61
2022/02/14 05:58:41;0.00;0.00;0.62;0.00;0.00;0.62;6.30;2.43;;;19.70;22.00;;;;;;2249343;61;20381;-61
2022/02/14 06:01:27;0.00;0.00;0.62;0.00;0.00;0.62;3.50;2.57;;;19.70;22.00;;;;;;2249442;61;20433;-58
2022/02/14 06:04:12;0.00;0.00;0.62;0.00;0.00;0.62;3.40;2.47;;;19.70;22.10;;;;;;2249498;61;20381;-62
2022/02/14 06:06:56;0.00;0.00;0.62;0.00;0.00;0.62;3.43;2.20;;;19.70;22.20;;;;;;2249235;61;20396;-61
2022/02/14 06:09:41;0.00;0.00;0.62;0.00;0.00;0.62;3.83;2.10;;;19.70;22.20;;;;;;2249155;61;20393;-61
2022/02/14 06:12:26;0.00;0.00;0.62;0.00;0.00;0.62;2.20;1.87;;;19.70;22.30;;;;;;2249489;61;20761;-62
2022/02/14 06:15:11;0.00;0.00;0.62;0.00;0.00;0.62;2.77;2.10;;;19.70;22.30;;;;;;2249130;61;20583;-62
2022/02/14 06:17:57;0.00;0.00;0.62;0.00;0.00;0.62;3.97;2.60;;;19.70;22.40;;;;;;2249532;61;20415;-62
2022/02/14 06:20:42;0.00;0.00;0.62;0.00;0.00;0.62;2.50;2.10;;;19.70;22.40;;;;;;2249479;61;20436;-61
2022/02/14 06:23:27;0.00;0.00;0.62;0.00;0.00;0.62;3.13;2.50;;;19.70;22.40;;;;;;2248589;61;20788;-61
2022/02/14 06:26:12;0.00;0.00;0.62;0.00;0.00;0.62;3.03;1.90;;;19.70;22.30;;;;;;2248091;61;20388;-60
2022/02/14 06:28:56;0.00;0.00;0.62;0.00;0.00;0.62;3.30;2.20;;;19.70;22.30;;;;;;2249030;61;20380;-60
2022/02/14 06:31:41;0.00;0.00;0.62;0.00;0.00;0.62;6.47;3.27;;;19.70;22.30;;;;;;2249083;61;20721;-60
2022/02/14 06:34:27;0.00;0.00;0.62;0.00;0.00;0.62;6.67;3.20;;;19.60;22.20;;;;;;2249609;61;20450;-61
2022/02/14 06:37:12;0.00;0.00;0.62;0.00;0.00;0.62;3.43;2.10;;;19.60;22.20;;;;;;2249043;61;20369;-60
2022/02/14 06:39:56;0.00;0.00;0.62;0.00;0.00;0.62;4.43;2.47;;;19.60;22.20;;;;;;2249818;61;20416;-61
2022/02/14 06:42:41;0.00;0.00;0.62;0.00;0.00;0.62;3.90;2.40;;;19.60;22.10;;;;;;2249268;61;20427;-61
2022/02/14 06:45:26;0.00;0.00;0.62;0.00;0.00;0.62;3.30;2.27;;;19.60;22.10;;;;;;2248426;61;20364;-60
2022/02/14 06:48:12;0.00;0.00;0.62;0.00;0.00;0.62;6.00;3.50;;;19.60;22.10;;;;;;2249457;61;20711;-60
2022/02/14 06:51:00;0.00;0.00;0.62;0.00;0.00;0.62;4.03;2.60;;;19.60;22.10;;;;;;2249026;61;20363;-62
2022/02/14 06:53:45;0.00;0.00;0.62;0.00;0.00;0.62;4.30;3.07;;;19.50;22.00;;;;;;2249304;61;20364;-60
2022/02/14 06:56:29;0.00;0.00;0.62;0.00;0.00;0.62;4.73;2.77;;;19.50;22.00;;;;;;2249620;61;20365;-60
2022/02/14 06:59:14;0.00;0.00;0.62;0.00;0.00;0.62;3.27;2.80;;;19.50;22.00;;;;;;2248812;61;20416;-61
2022/02/14 07:02:01;0.00;0.00;0.62;0.00;0.00;0.62;2.80;2.50;;;19.50;22.00;;;;;;2249510;61;20581;-60
2022/02/14 07:04:46;0.00;0.00;0.62;0.00;0.00;0.62;3.80;2.43;;;19.50;22.00;;;;;;2249136;61;20447;-62
2022/02/14 07:07:32;0.00;0.00;0.62;0.00;0.00;0.62;3.90;2.90;;;19.40;21.90;;;;;;2248907;61;20661;-62
2022/02/14 07:10:17;0.00;0.00;0.62;0.00;0.00;0.62;4.07;2.50;;;19.40;21.90;;;;;;2249450;61;20736;-62
2022/02/14 07:13:02;0.00;0.00;0.62;0.00;0.00;0.62;3.13;2.57;;;19.40;21.90;;;;;;2248756;61;20341;-62
2022/02/14 07:15:47;0.00;0.00;0.62;0.00;0.00;0.62;3.60;2.83;;;19.40;22.00;;;;;;2249175;61;20368;-62
2022/02/14 07:18:31;0.00;0.00;0.62;0.00;0.00;0.62;4.17;3.03;;;19.40;22.00;;;;;;2249259;61;20377;-61
2022/02/14 07:21:17;0.00;0.00;0.62;0.00;0.00;0.62;2.67;2.23;;;19.30;21.90;;;;;;2248881;61;20360;-62
2022/02/14 07:24:05;0.00;0.00;0.62;0.00;0.00;0.62;3.70;2.50;;;19.30;22.00;;;;;;2249361;61;20412;-62
2022/02/14 07:26:50;0.00;0.00;0.62;0.00;0.00;0.62;3.60;2.40;;;19.30;22.00;;;;;;2249818;61;20373;-62
2022/02/14 07:29:34;0.00;0.00;0.62;0.00;0.00;0.62;4.40;2.40;;;19.30;22.00;;;;;;2249415;61;20792;-60
2022/02/14 07:32:19;0.00;0.00;0.62;0.00;0.00;0.62;5.40;2.97;;;19.30;22.10;;;;;;2250098;61;20365;-61
2022/02/14 07:35:05;0.00;0.00;0.62;0.00;0.00;0.62;3.40;2.47;;;19.30;22.10;;;;;;2249655;61;20437;-60
2022/02/14 07:37:50;0.00;0.00;0.62;0.00;0.00;0.62;3.27;2.47;;;19.30;22.10;;;;;;2249684;61;20704;-62
2022/02/14 07:40:36;0.00;0.00;0.62;0.00;0.00;0.62;4.50;2.40;;;19.30;22.10;;;;;;2249997;61;20403;-60
2022/02/14 07:43:21;0.00;0.00;0.62;0.00;0.00;0.62;3.10;2.20;;;19.30;22.10;;;;;;2249597;61;20384;-62
2022/02/14 07:46:06;0.00;0.00;0.62;0.00;0.00;0.62;3.30;2.10;;;19.30;22.10;;;;;;2249926;61;20713;-62
2022/02/14 07:48:50;0.00;0.00;0.62;0.00;0.00;0.62;4.67;2.30;;;19.30;22.20;;;;;;2249703;61;20412;-61
2022/02/14 07:51:35;0.00;0.00;0.62;0.00;0.00;0.62;9.40;4.10;;;19.30;22.20;;;;;;2249437;61;20622;-61
2022/02/14 07:54:19;0.00;0.00;0.62;0.00;0.00;0.62;4.77;2.20;;;19.30;22.20;;;;;;2250201;61;20413;-61
2022/02/14 07:57:05;0.00;0.00;0.62;0.00;0.00;0.62;6.47;3.00;;;19.30;22.20;;;;;;2246023;61;20389;-61
2022/02/14 07:59:50;0.00;0.00;0.62;0.00;0.00;0.62;3.63;2.30;;;19.30;22.20;;;;;;2245844;61;20389;-61
2022/02/14 08:02:34;0.00;0.00;0.62;0.00;0.00;0.62;3.03;2.00;;;19.20;22.20;;;;;;2246137;61;20365;-62
2022/02/14 08:05:19;0.00;0.00;0.62;0.00;0.00;0.62;4.53;2.30;;;19.30;22.20;;;;;;2245655;61;20430;-61
2022/02/14 08:08:04;0.00;0.00;0.62;0.00;0.00;0.62;3.70;2.20;;;19.20;22.20;;;;;;2245672;61;20421;-60
2022/02/14 08:10:49;0.00;0.00;0.62;0.00;0.00;0.62;5.50;2.70;;;19.30;22.20;;;;;;2245886;61;20369;-62
2022/02/14 08:13:35;0.00;0.00;0.62;0.00;0.00;0.62;3.40;2.07;;;19.30;22.20;;;;;;2245837;61;20358;-61
2022/02/14 08:16:19;0.00;0.00;0.62;0.00;0.00;0.62;3.30;2.73;;;19.20;22.20;;;;;;2246175;61;20381;-61
2022/02/14 08:19:04;0.00;0.00;0.62;0.00;0.00;0.62;4.07;2.80;;;19.20;22.20;;;;;;2245687;61;20378;-63
2022/02/14 08:21:48;0.00;0.00;0.62;0.00;0.00;0.62;4.17;2.40;;;19.20;22.20;;;;;;2245415;61;20361;-62
2022/02/14 08:24:33;0.00;0.00;0.62;0.00;0.00;0.62;4.50;2.47;;;19.20;22.20;;;;;;2245989;61;20397;-60
2022/02/14 08:27:19;0.00;0.00;0.62;0.00;0.00;0.62;3.73;2.30;;;19.20;22.20;;;;;;2245507;61;20361;-62
2022/02/14 08:30:07;0.00;0.00;0.62;0.00;0.00;0.62;7.17;2.40;;;19.20;22.20;;;;;;2245388;61;20385;-60
2022/02/14 08:32:51;0.00;0.00;0.62;0.00;0.00;0.62;4.13;2.23;;;19.20;22.30;;;;;;2245948;61;20373;-59
2022/02/14 08:35:38;0.00;0.00;0.62;0.00;0.00;0.62;3.20;2.23;;;19.10;22.20;;;;;;2245453;61;20738;-61
2022/02/14 08:38:24;0.00;0.00;0.62;0.00;0.00;0.62;5.27;2.27;;;19.20;22.40;;;;;;2245692;61;20385;-62
2022/02/14 08:41:08;0.00;0.00;0.62;0.00;0.00;0.62;3.53;2.70;;;19.20;22.40;;;;;;2245740;61;20712;-62
2022/02/14 08:43:55;0.00;0.00;0.62;0.00;0.00;0.62;4.17;2.87;;;19.20;22.90;;;;;;2245385;61;20388;-62
2022/02/14 08:46:41;0.00;0.00;0.62;0.00;0.00;0.62;5.20;2.67;;;19.10;22.40;;;;;;2245769;61;20373;-62
2022/02/14 08:49:27;0.00;0.00;0.62;0.00;0.00;0.62;3.30;2.30;;;19.20;22.40;;;;;;2245356;61;20384;-62
2022/02/14 08:52:12;0.00;0.00;0.62;0.00;0.00;0.62;4.97;2.33;;;19.10;22.40;;;;;;2245585;61;20622;-62
2022/02/14 08:54:56;0.00;0.00;0.62;0.00;0.00;0.62;4.23;2.60;;;19.10;22.40;;;;;;2245838;61;20397;-61
2022/02/14 08:57:41;0.00;0.00;0.62;0.00;0.00;0.62;3.17;2.30;;;19.10;22.40;;;;;;2245285;61;20737;-61
2022/02/14 09:00:25;0.00;0.00;0.62;0.00;0.00;0.62;6.33;2.90;;;19.10;22.50;;;;;;2245786;61;20754;-62
2022/02/14 09:03:11;0.00;0.00;0.62;0.00;0.00;0.62;3.67;2.13;;;19.10;22.50;;;;;;2245833;61;20397;-62
2022/02/14 09:05:56;0.00;0.00;0.62;0.00;0.00;0.62;2.63;2.37;;;19.10;22.60;;;;;;2245275;61;20370;-62
2022/02/14 09:08:40;0.00;0.00;0.62;0.00;0.00;0.62;3.50;2.30;;;19.10;22.60;;;;;;2245739;61;20417;-61
2022/02/14 09:11:25;0.00;0.00;0.62;0.00;0.00;0.62;3.30;1.93;;;19.20;22.70;;;;;;2245291;61;20393;-61
2022/02/14 09:14:09;0.00;0.00;0.62;0.00;0.00;0.62;3.43;2.17;;;19.20;22.70;;;;;;2245532;61;20358;-62
2022/02/14 09:16:55;0.00;0.00;0.62;0.00;0.00;0.62;3.03;2.03;;;19.20;22.70;;;;;;2245863;61;20639;-62
2022/02/14 09:19:42;0.00;0.00;0.62;0.00;0.00;0.62;3.77;1.97;;;19.20;22.70;;;;;;2245204;61;20400;-60
2022/02/14 09:22:27;0.00;0.00;0.62;0.00;0.00;0.62;3.20;2.00;;;19.20;22.70;;;;;;2245690;61;20369;-60
2022/02/14 09:25:11;0.00;0.00;0.62;0.00;0.00;0.62;3.97;2.10;;;19.30;22.90;;;;;;2245622;61;20365;-60
2022/02/14 09:27:56;0.00;0.00;0.62;0.00;0.00;0.62;4.73;2.20;;;19.30;22.80;;;;;;2245046;61;20596;-60
2022/02/14 09:30:41;0.00;0.00;0.62;0.00;0.00;0.62;5.93;2.60;;;19.30;22.90;;;;;;2245731;61;20365;-61
2022/02/14 09:33:25;0.00;0.00;0.62;0.00;0.00;0.62;4.00;1.80;;;19.40;22.90;;;;;;2245086;61;20413;-61
2022/02/14 09:36:12;0.00;0.00;0.62;0.00;0.00;0.62;2.83;2.20;;;19.40;22.90;;;;;;2245543;61;20704;-61
2022/02/14 09:38:56;0.00;0.00;0.62;0.00;0.00;0.62;4.83;3.20;;;19.50;23.00;;;;;;2245597;61;20389;-62
2022/02/14 09:41:41;0.00;0.00;0.62;0.00;0.00;0.62;3.83;2.57;;;19.50;23.10;;;;;;2245226;61;20361;-60
2022/02/14 09:44:26;0.00;0.00;0.62;0.00;0.00;0.62;3.27;2.20;;;19.50;23.10;;;;;;2245613;61;20666;-60
2022/02/14 09:47:10;0.00;0.00;0.62;0.00;0.00;0.62;4.67;1.93;;;19.60;23.20;;;;;;2245504;61;20409;-61
2022/02/14 09:49:55;0.00;0.00;0.62;0.00;0.00;0.62;5.40;2.40;;;19.60;23.20;;;;;;2245089;61;20621;-61
2022/02/14 09:52:41;0.00;0.00;0.62;0.00;0.00;0.62;3.13;2.50;;;19.70;23.20;;;;;;2245931;61;20449;-62
2022/02/14 09:55:26;0.00;0.00;0.62;0.00;0.00;0.62;2.77;2.03;;;19.70;23.20;;;;;;2245285;61;20789;-62
2022/02/14 09:58:11;0.00;0.00;0.62;0.00;0.00;0.62;3.53;2.57;;;19.70;23.20;;;;;;2245359;61;20393;-62
2022/02/14 10:00:55;0.00;0.00;0.62;0.00;0.00;0.62;4.77;2.33;;;19.80;23.30;;;;;;2245675;61;20409;-61
2022/02/14 10:03:49;0.00;0.00;0.62;0.00;0.00;0.62;3.07;1.97;;;19.80;23.30;;;;;;2245082;61;20421;-61
2022/02/14 10:06:37;0.00;0.00;0.62;0.00;0.00;0.62;2.77;2.20;;;19.80;23.30;;;;;;2245232;61;20358;-62
2022/02/14 10:09:24;0.00;0.00;0.62;0.00;0.00;0.62;2.80;2.20;;;19.90;23.30;;;;;;2245348;61;20389;-62
2022/02/14 10:12:10;0.00;0.00;0.62;0.00;0.00;0.62;2.20;1.67;;;20.00;23.40;;;;;;2244990;61;20364;-62
2022/02/14 10:15:02;0.00;0.00;0.62;0.00;0.00;0.62;3.90;2.00;;;20.00;23.30;;;;;;2245876;61;20572;-61
2022/02/14 10:17:49;0.00;0.00;0.62;0.00;0.00;0.62;3.70;2.30;;;20.00;23.30;;;;;;2245349;61;20574;-61
2022/02/14 10:20:33;0.00;0.00;0.62;0.00;0.00;0.62;2.80;1.63;;;20.10;23.40;;;;;;2245355;61;20370;-60
2022/02/14 10:23:18;0.00;0.00;0.62;0.00;0.00;0.62;4.50;2.20;;;20.10;23.40;;;;;;2245540;61;20436;-62
2022/02/14 10:26:04;0.00;0.00;0.62;0.00;0.00;0.62;3.33;2.10;;;20.20;23.40;;;;;;2245172;61;20884;-60
2022/02/14 10:28:49;0.00;0.00;0.62;0.00;0.00;0.62;2.97;1.80;;;20.20;23.40;;;;;;2245234;61;20643;-62
2022/02/14 10:31:40;0.00;0.00;0.62;0.00;0.00;0.62;4.20;2.13;;;20.20;23.30;;;;;;2245508;61;20366;-62
2022/02/14 10:34:34;0.00;0.00;0.62;0.00;0.00;0.62;2.73;2.07;;;20.30;23.40;;;;;;2245139;61;20354;-62
2022/02/14 10:37:19;0.00;0.00;0.62;0.00;0.00;0.62;4.13;1.93;;;20.30;23.30;;;;;;2245393;61;20381;-62
2022/02/14 10:40:05;0.00;0.00;0.62;0.00;0.00;0.62;2.70;1.83;;;20.40;23.30;;;;;;2245239;61;20465;-60
2022/02/14 10:42:51;0.00;0.00;0.62;0.00;0.00;0.62;3.67;2.40;;;20.40;23.30;;;;;;2245462;61;20357;-61
2022/02/14 10:45:36;0.00;0.00;0.62;0.00;0.00;0.62;4.63;2.10;;;20.40;23.20;;;;;;2245517;61;20361;-60
2022/02/14 10:48:34;0.00;0.00;0.62;0.00;0.00;0.62;4.00;2.37;;;20.40;23.20;;;;;;2245062;61;20596;-61
2022/02/14 10:51:20;0.00;0.00;0.62;0.00;0.00;0.62;3.47;2.27;;;20.50;23.30;;;;;;2245295;61;20587;-62